createdAt,value
2019-02-28T00:00:18.785Z,4.58
2019-02-28T00:01:32.778Z,3.35
2019-02-28T00:02:35.314Z,3.67
2019-02-28T00:03:38.077Z,3.55
2019-02-28T00:04:40.728Z,3.25
2019-02-28T00:05:43.382Z,2.67
2019-02-28T00:06:46.199Z,2.83
2019-02-28T00:07:49.636Z,3.08
2019-02-28T00:08:53.758Z,2.65
2019-02-28T00:09:57.478Z,2.55
2019-02-28T00:11:01.993Z,3.37
2019-02-28T00:12:05.808Z,2.95
2019-02-28T00:13:10.162Z,2.92
2019-02-28T00:14:12.785Z,2.80
2019-02-28T00:15:15.422Z,2.85
2019-02-28T00:16:18.049Z,2.75
2019-02-28T00:17:20.792Z,2.70
2019-02-28T00:18:23.414Z,2.67
2019-02-28T00:19:27.068Z,2.50
2019-02-28T00:20:31.987Z,2.12
2019-02-28T00:21:34.142Z,2.58
2019-02-28T00:22:36.779Z,2.52
2019-02-28T00:23:39.680Z,3.17
2019-02-28T00:24:42.356Z,3.00
2019-02-28T00:25:44.933Z,3.75
2019-02-28T00:26:49.256Z,3.20
2019-02-28T00:27:52.663Z,2.83
2019-02-28T00:28:57.055Z,2.85
2019-02-28T00:30:00.950Z,3.60
2019-02-28T00:31:03.901Z,3.35
2019-02-28T00:32:06.498Z,3.87
2019-02-28T00:33:11.027Z,3.65
2019-02-28T00:34:13.959Z,2.87
2019-02-28T00:35:16.805Z,3.02
2019-02-28T00:36:19.833Z,3.98
2019-02-28T00:37:24.697Z,2.75
2019-02-28T00:38:29.623Z,3.45
2019-02-28T00:39:34.821Z,3.70
2019-02-28T00:40:38.500Z,3.30
2019-02-28T00:41:44.469Z,3.20
2019-02-28T00:42:48.077Z,3.20
2019-02-28T00:43:50.210Z,3.75
2019-02-28T00:44:52.909Z,3.75
2019-02-28T00:45:55.598Z,3.90
2019-02-28T00:46:58.291Z,4.10
2019-02-28T00:48:00.792Z,4.20
2019-02-28T00:49:03.316Z,4.12
2019-02-28T00:50:06.038Z,4.35
2019-02-28T00:51:08.663Z,4.03
2019-02-28T00:52:11.292Z,3.65
2019-02-28T00:53:14.082Z,4.33
2019-02-28T00:54:16.630Z,3.90
2019-02-28T00:55:19.305Z,4.37
2019-02-28T00:56:21.810Z,3.83
2019-02-28T00:57:24.697Z,3.92
2019-02-28T00:58:28.987Z,3.98
2019-02-28T00:59:32.435Z,3.35
2019-02-28T01:00:37.099Z,4.15
2019-02-28T01:01:39.673Z,3.77
2019-02-28T01:02:42.231Z,4.50
2019-02-28T01:03:45.614Z,5.33
2019-02-28T01:04:48.141Z,4.65
2019-02-28T01:05:50.771Z,4.30
2019-02-28T01:06:53.476Z,4.62
2019-02-28T01:07:56.145Z,4.42
2019-02-28T01:08:58.842Z,4.97
2019-02-28T01:10:04.575Z,4.75
2019-02-28T01:11:06.019Z,4.58
2019-02-28T01:12:08.702Z,5.62
2019-02-28T01:13:11.249Z,5.12
2019-02-28T01:14:13.916Z,6.10
2019-02-28T01:15:16.735Z,4.85
2019-02-28T01:16:20.071Z,5.95
2019-02-28T01:17:24.113Z,6.10
2019-02-28T01:18:27.269Z,5.92
2019-02-28T01:19:31.590Z,6.10
2019-02-28T01:20:34.114Z,4.67
2019-02-28T01:21:37.978Z,4.97
2019-02-28T01:22:40.530Z,5.33
2019-02-28T01:23:44.861Z,6.22
2019-02-28T01:24:47.418Z,5.75
2019-02-28T01:25:50.161Z,5.60
2019-02-28T01:26:52.725Z,5.70
2019-02-28T01:27:55.335Z,5.75
2019-02-28T01:29:01.368Z,4.83
2019-02-28T01:30:02.739Z,6.05
2019-02-28T01:31:05.607Z,6.70
2019-02-28T01:32:08.154Z,6.30
2019-02-28T01:33:10.741Z,5.47
2019-02-28T01:34:13.251Z,5.83
2019-02-28T01:35:15.761Z,6.78
2019-02-28T01:36:18.360Z,5.33
2019-02-28T01:37:22.705Z,7.15
2019-02-28T01:38:25.292Z,5.60
2019-02-28T01:39:30.734Z,5.12
2019-02-28T01:40:35.189Z,6.47
2019-02-28T01:41:38.071Z,6.30
2019-02-28T01:42:40.731Z,7.40
2019-02-28T01:43:43.493Z,6.05
2019-02-28T01:44:48.297Z,6.33
2019-02-28T01:45:50.917Z,6.70
2019-02-28T01:46:53.362Z,5.90
2019-02-28T01:47:56.014Z,7.20
2019-02-28T01:48:58.590Z,6.37
2019-02-28T01:50:02.136Z,6.35
2019-02-28T01:51:04.958Z,7.45
2019-02-28T01:52:10.092Z,6.15
2019-02-28T01:53:13.345Z,6.58
2019-02-28T01:54:16.039Z,6.75
2019-02-28T01:55:18.567Z,7.65
2019-02-28T01:56:21.203Z,7.20
2019-02-28T01:57:23.916Z,6.90
2019-02-28T01:58:26.473Z,6.30
2019-02-28T01:59:29.001Z,6.60
2019-02-28T02:00:31.665Z,6.28
2019-02-28T02:01:34.149Z,6.78
2019-02-28T02:02:38.045Z,7.20
2019-02-28T02:03:44.025Z,8.33
2019-02-28T02:04:46.703Z,7.08
2019-02-28T02:05:51.680Z,7.30
2019-02-28T02:06:53.906Z,7.22
2019-02-28T02:07:58.202Z,7.42
2019-02-28T02:09:00.847Z,7.30
2019-02-28T02:10:08.676Z,7.40
2019-02-28T02:11:11.275Z,7.20
2019-02-28T02:12:14.006Z,8.05
2019-02-28T02:13:16.879Z,7.25
2019-02-28T02:14:19.404Z,7.58
2019-02-28T02:15:22.269Z,7.30
2019-02-28T02:16:27.751Z,7.83
2019-02-28T02:17:29.337Z,8.40
2019-02-28T02:18:32.079Z,7.42
2019-02-28T02:19:34.602Z,7.95
2019-02-28T02:20:37.403Z,6.70
2019-02-28T02:21:40.213Z,8.40
2019-02-28T02:22:44.448Z,7.83
2019-02-28T02:23:49.594Z,8.60
2019-02-28T02:24:51.661Z,8.60
2019-02-28T02:25:54.596Z,7.87
2019-02-28T02:26:57.233Z,8.93
2019-02-28T02:27:59.949Z,7.15
2019-02-28T02:29:02.909Z,8.45
2019-02-28T02:30:13.304Z,7.83
2019-02-28T02:31:14.437Z,8.83
2019-02-28T02:32:17.201Z,8.18
2019-02-28T02:33:19.715Z,8.28
2019-02-28T02:34:24.269Z,7.97
2019-02-28T02:35:27.027Z,8.85
2019-02-28T02:36:29.566Z,7.65
2019-02-28T02:37:32.116Z,8.75
2019-02-28T02:38:40.138Z,7.90
2019-02-28T02:39:39.240Z,8.03
2019-02-28T02:40:41.983Z,9.13
2019-02-28T02:41:44.690Z,10.25
2019-02-28T02:42:49.749Z,7.85
2019-02-28T02:43:55.063Z,10.30
2019-02-28T02:44:56.830Z,8.73
2019-02-28T02:46:00.572Z,8.23
2019-02-28T02:47:03.211Z,9.13
2019-02-28T02:48:06.819Z,8.00
2019-02-28T02:49:18.297Z,9.43
2019-02-28T02:50:16.415Z,8.13
2019-02-28T02:51:19.023Z,8.85
2019-02-28T02:52:25.877Z,9.90
2019-02-28T02:53:26.574Z,8.45
2019-02-28T02:54:29.281Z,9.40
2019-02-28T02:55:32.268Z,8.75
2019-02-28T02:56:40.680Z,7.47
2019-02-28T02:57:39.561Z,9.85
2019-02-28T02:58:42.347Z,8.70
2019-02-28T02:59:45.029Z,9.58
2019-02-28T03:00:51.100Z,8.85
2019-02-28T03:01:56.157Z,9.13
2019-02-28T03:02:57.082Z,9.00
2019-02-28T03:03:59.695Z,8.85
2019-02-28T03:05:02.334Z,9.00
2019-02-28T03:06:12.227Z,10.05
2019-02-28T03:07:09.401Z,9.33
2019-02-28T03:08:11.990Z,9.60
2019-02-28T03:09:14.598Z,8.53
2019-02-28T03:10:19.686Z,9.60
2019-02-28T03:11:24.834Z,10.35
2019-02-28T03:12:31.037Z,7.28
2019-02-28T03:13:31.986Z,8.73
2019-02-28T03:14:34.672Z,10.32
2019-02-28T03:15:37.209Z,10.35
2019-02-28T03:16:40.024Z,8.60
2019-02-28T03:17:47.203Z,9.23
2019-02-28T03:18:48.548Z,8.60
2019-02-28T03:19:51.547Z,9.83
2019-02-28T03:20:54.112Z,9.30
2019-02-28T03:21:56.837Z,9.35
2019-02-28T03:23:02.160Z,8.90
2019-02-28T03:24:04.214Z,10.40
2019-02-28T03:25:07.966Z,8.83
2019-02-28T03:26:10.479Z,8.35
2019-02-28T03:27:18.721Z,9.48
2019-02-28T03:28:17.743Z,8.23
2019-02-28T03:29:20.500Z,11.05
2019-02-28T03:30:31.265Z,10.20
2019-02-28T03:31:27.695Z,7.92
2019-02-28T03:32:39.590Z,10.20
2019-02-28T03:33:34.833Z,8.23
2019-02-28T03:34:37.650Z,10.28
2019-02-28T03:35:43.709Z,8.53
2019-02-28T03:36:55.358Z,9.85
2019-02-28T03:37:49.050Z,10.00
2019-02-28T03:38:51.580Z,9.35
2019-02-28T03:40:02.710Z,8.85
2019-02-28T03:40:59.061Z,8.43
2019-02-28T03:42:02.964Z,10.23
2019-02-28T03:43:06.736Z,9.33
2019-02-28T03:44:09.951Z,10.50
2019-02-28T03:45:13.486Z,9.85
2019-02-28T03:46:16.043Z,9.90
2019-02-28T03:47:22.468Z,10.60
2019-02-28T03:48:23.249Z,10.28
2019-02-28T03:49:26.029Z,10.03
2019-02-28T03:50:28.869Z,9.00
2019-02-28T03:51:31.699Z,11.03
2019-02-28T03:52:42.274Z,8.95
2019-02-28T03:53:39.196Z,8.40
2019-02-28T03:54:41.751Z,10.35
2019-02-28T03:55:44.373Z,9.33
2019-02-28T03:56:51.369Z,9.38
2019-02-28T03:57:51.300Z,10.00
2019-02-28T03:58:54.219Z,10.08
2019-02-28T03:59:57.938Z,10.00
2019-02-28T04:01:00.615Z,10.10
2019-02-28T04:02:03.423Z,10.15
2019-02-28T04:03:05.953Z,10.50
2019-02-28T04:04:12.235Z,10.32
2019-02-28T04:05:15.072Z,10.60
2019-02-28T04:06:18.903Z,9.13
2019-02-28T04:07:23.226Z,10.03
2019-02-28T04:08:29.368Z,10.35
2019-02-28T04:09:30.428Z,10.20
2019-02-28T04:10:34.380Z,11.48
2019-02-28T04:11:37.412Z,9.75
2019-02-28T04:12:45.078Z,9.55
2019-02-28T04:13:44.755Z,11.00
2019-02-28T04:14:47.436Z,9.70
2019-02-28T04:16:07.562Z,9.80
2019-02-28T04:16:56.300Z,10.05
2019-02-28T04:18:06.502Z,9.63
2019-02-28T04:19:03.854Z,10.38
2019-02-28T04:20:07.059Z,10.63
2019-02-28T04:21:10.712Z,11.88
2019-02-28T04:22:14.307Z,11.73
2019-02-28T04:23:16.980Z,10.82
2019-02-28T04:24:19.538Z,9.68
2019-02-28T04:25:24.166Z,11.05
2019-02-28T04:26:29.762Z,10.65
2019-02-28T04:27:31.126Z,11.05
2019-02-28T04:28:33.780Z,11.30
2019-02-28T04:29:36.317Z,10.13
2019-02-28T04:30:42.640Z,11.08
2019-02-28T04:31:43.414Z,11.03
2019-02-28T04:32:46.049Z,10.20
2019-02-28T04:33:48.573Z,10.63
2019-02-28T04:34:51.457Z,10.45
2019-02-28T04:35:56.924Z,10.93
2019-02-28T04:36:58.791Z,10.55
2019-02-28T04:38:01.416Z,11.12
2019-02-28T04:39:06.041Z,12.37
2019-02-28T04:40:09.003Z,11.10
2019-02-28T04:41:11.573Z,11.88
2019-02-28T04:42:14.211Z,11.53
2019-02-28T04:43:17.836Z,11.28
2019-02-28T04:44:20.531Z,10.82
2019-02-28T04:45:23.399Z,11.30
2019-02-28T04:46:28.399Z,11.43
2019-02-28T04:47:32.444Z,11.65
2019-02-28T04:48:36.413Z,10.98
2019-02-28T04:49:38.939Z,11.03
2019-02-28T04:50:41.638Z,11.20
2019-02-28T04:51:44.563Z,10.82
2019-02-28T04:52:48.293Z,9.93
2019-02-28T04:53:53.158Z,10.68
2019-02-28T04:54:55.596Z,11.88
2019-02-28T04:55:58.357Z,10.78
2019-02-28T04:57:00.972Z,11.95
2019-02-28T04:58:03.754Z,10.88
2019-02-28T04:59:06.301Z,12.25
2019-02-28T05:00:09.317Z,11.85
2019-02-28T05:01:12.359Z,11.85
2019-02-28T05:02:19.676Z,11.63
2019-02-28T05:03:20.633Z,12.00
2019-02-28T05:04:23.253Z,11.45
2019-02-28T05:05:27.641Z,12.33
2019-02-28T05:06:30.174Z,11.03
2019-02-28T05:07:34.492Z,11.15
2019-02-28T05:08:38.950Z,11.68
2019-02-28T05:09:41.504Z,11.20
2019-02-28T05:10:44.211Z,10.48
2019-02-28T05:11:46.856Z,12.00
2019-02-28T05:12:49.583Z,12.47
2019-02-28T05:13:52.312Z,11.28
2019-02-28T05:14:55.322Z,11.97
2019-02-28T05:15:59.339Z,11.70
2019-02-28T05:17:02.251Z,11.83
2019-02-28T05:18:05.037Z,11.55
2019-02-28T05:19:07.715Z,11.80
2019-02-28T05:20:11.909Z,10.90
2019-02-28T05:21:16.561Z,12.40
2019-02-28T05:22:19.579Z,11.55
2019-02-28T05:23:23.353Z,11.30
2019-02-28T05:24:25.845Z,12.25
2019-02-28T05:25:28.556Z,11.45
2019-02-28T05:26:31.088Z,12.50
2019-02-28T05:27:35.546Z,11.65
2019-02-28T05:28:41.199Z,12.07
2019-02-28T05:29:44.730Z,12.43
2019-02-28T05:30:53.683Z,13.05
2019-02-28T05:31:58.075Z,11.53
2019-02-28T05:33:00.357Z,13.13
2019-02-28T05:34:03.102Z,11.28
2019-02-28T05:35:05.983Z,11.78
2019-02-28T05:36:08.511Z,11.93
2019-02-28T05:37:12.598Z,12.33
2019-02-28T05:38:20.705Z,12.37
2019-02-28T05:39:20.424Z,13.25
2019-02-28T05:40:22.999Z,13.83
2019-02-28T05:41:25.543Z,12.53
2019-02-28T05:42:28.281Z,11.08
2019-02-28T05:43:32.265Z,11.73
2019-02-28T05:44:37.437Z,11.78
2019-02-28T05:45:40.038Z,11.70
2019-02-28T05:46:42.676Z,13.58
2019-02-28T05:47:47.241Z,12.85
2019-02-28T05:48:50.985Z,13.43
2019-02-28T05:49:54.846Z,12.15
2019-02-28T05:50:57.504Z,11.05
2019-02-28T05:52:00.332Z,13.03
2019-02-28T05:53:03.108Z,12.88
2019-02-28T05:54:05.752Z,11.40
2019-02-28T05:55:08.659Z,12.78
2019-02-28T05:56:11.327Z,12.53
2019-02-28T05:57:14.073Z,12.90
2019-02-28T05:58:18.375Z,12.18
2019-02-28T05:59:26.143Z,12.23
2019-02-28T06:00:25.750Z,12.55
2019-02-28T06:01:28.403Z,12.25
2019-02-28T06:02:30.941Z,12.60
2019-02-28T06:03:33.541Z,11.48
2019-02-28T06:04:37.181Z,12.35
2019-02-28T06:05:43.321Z,12.10
2019-02-28T06:06:46.411Z,11.53
2019-02-28T06:07:49.373Z,13.48
2019-02-28T06:08:52.028Z,11.95
2019-02-28T06:09:56.779Z,12.35
2019-02-28T06:11:01.414Z,11.33
2019-02-28T06:12:06.569Z,12.88
2019-02-28T06:13:09.129Z,12.18
2019-02-28T06:14:12.810Z,11.63
2019-02-28T06:15:15.990Z,12.98
2019-02-28T06:16:20.332Z,12.43
2019-02-28T06:17:23.106Z,11.45
2019-02-28T06:18:26.659Z,11.65
2019-02-28T06:19:30.214Z,14.25
2019-02-28T06:20:32.907Z,11.60
2019-02-28T06:21:35.436Z,12.63
2019-02-28T06:22:38.330Z,11.25
2019-02-28T06:23:41.645Z,12.73
2019-02-28T06:24:45.866Z,11.38
2019-02-28T06:25:48.826Z,12.85
2019-02-28T06:26:51.491Z,13.35
2019-02-28T06:27:54.255Z,13.53
2019-02-28T06:28:56.822Z,12.25
2019-02-28T06:29:59.382Z,12.47
2019-02-28T06:31:02.316Z,11.70
2019-02-28T06:32:05.204Z,12.15
2019-02-28T06:33:08.053Z,12.18
2019-02-28T06:34:10.810Z,12.35
2019-02-28T06:35:16.129Z,13.20
2019-02-28T06:36:17.796Z,11.43
2019-02-28T06:37:20.528Z,12.90
2019-02-28T06:38:23.088Z,13.22
2019-02-28T06:39:26.857Z,12.13
2019-02-28T06:40:33.003Z,11.35
2019-02-28T06:41:34.871Z,11.97
2019-02-28T06:42:37.697Z,11.55
2019-02-28T06:43:40.477Z,12.47
2019-02-28T06:44:44.853Z,12.63
2019-02-28T06:45:47.544Z,12.85
2019-02-28T06:46:50.213Z,12.05
2019-02-28T06:47:52.766Z,13.15
2019-02-28T06:49:01.500Z,10.98
2019-02-28T06:49:59.934Z,12.85
2019-02-28T06:51:02.496Z,13.28
2019-02-28T06:52:05.437Z,11.93
2019-02-28T06:53:08.110Z,12.88
2019-02-28T06:54:10.834Z,12.88
2019-02-28T06:55:17.714Z,12.80
2019-02-28T06:56:22.635Z,12.10
2019-02-28T06:57:26.875Z,13.32
2019-02-28T06:58:30.484Z,13.35
2019-02-28T06:59:36.155Z,12.58
2019-02-28T07:00:38.875Z,12.20
2019-02-28T07:01:41.862Z,12.60
2019-02-28T07:02:46.612Z,12.10
2019-02-28T07:03:53.456Z,12.03
2019-02-28T07:04:53.890Z,12.00
2019-02-28T07:05:57.548Z,11.68
2019-02-28T07:07:00.898Z,12.73
2019-02-28T07:08:04.986Z,12.43
2019-02-28T07:09:07.633Z,12.20
2019-02-28T07:10:12.718Z,12.13
2019-02-28T07:11:15.241Z,11.45
2019-02-28T07:12:17.757Z,13.65
2019-02-28T07:13:20.801Z,13.05
2019-02-28T07:14:25.383Z,11.55
2019-02-28T07:15:28.048Z,11.90
2019-02-28T07:16:34.630Z,12.40
2019-02-28T07:17:35.334Z,11.40
2019-02-28T07:18:39.091Z,12.00
2019-02-28T07:19:41.615Z,12.50
2019-02-28T07:20:44.581Z,12.10
2019-02-28T07:21:47.221Z,11.65
2019-02-28T07:22:54.472Z,12.10
2019-02-28T07:23:54.659Z,12.82
2019-02-28T07:24:59.154Z,12.25
2019-02-28T07:26:01.801Z,12.20
2019-02-28T07:27:04.681Z,13.03
2019-02-28T07:28:07.257Z,10.25
2019-02-28T07:29:11.958Z,11.53
2019-02-28T07:30:18.784Z,13.05
2019-02-28T07:31:21.691Z,12.47
2019-02-28T07:32:26.205Z,13.28
2019-02-28T07:33:29.059Z,12.58
2019-02-28T07:34:31.696Z,11.43
2019-02-28T07:35:36.806Z,12.68
2019-02-28T07:36:41.503Z,13.13
2019-02-28T07:37:43.499Z,12.25
2019-02-28T07:38:46.096Z,13.25
2019-02-28T07:39:48.765Z,12.80
2019-02-28T07:40:51.466Z,12.28
2019-02-28T07:41:54.064Z,12.78
2019-02-28T07:42:56.807Z,10.80
2019-02-28T07:43:59.372Z,12.88
2019-02-28T07:45:02.010Z,12.43
2019-02-28T07:46:07.648Z,13.50
2019-02-28T07:47:09.260Z,12.43
2019-02-28T07:48:11.806Z,12.78
2019-02-28T07:49:14.533Z,12.85
2019-02-28T07:50:17.331Z,13.08
2019-02-28T07:51:22.672Z,13.43
2019-02-28T07:52:24.588Z,12.53
2019-02-28T07:53:29.007Z,12.23
2019-02-28T07:54:31.487Z,12.13
2019-02-28T07:55:34.268Z,12.43
2019-02-28T07:56:42.547Z,13.25
2019-02-28T07:57:41.707Z,13.65
2019-02-28T07:58:44.225Z,13.03
2019-02-28T07:59:46.822Z,12.68
2019-02-28T08:00:52.631Z,11.75
2019-02-28T08:01:55.357Z,11.40
2019-02-28T08:02:57.929Z,11.55
2019-02-28T08:04:00.605Z,13.30
2019-02-28T08:05:03.536Z,12.85
2019-02-28T08:06:06.287Z,13.00
2019-02-28T08:07:11.414Z,12.47
2019-02-28T08:08:13.689Z,12.00
2019-02-28T08:09:27.520Z,11.88
2019-02-28T08:10:30.284Z,12.58
2019-02-28T08:11:32.990Z,12.60
2019-02-28T08:12:35.520Z,12.98
2019-02-28T08:13:38.662Z,11.60
2019-02-28T08:14:43.642Z,11.33
2019-02-28T08:15:46.610Z,12.23
2019-02-28T08:16:49.408Z,12.95
2019-02-28T08:17:52.039Z,13.58
2019-02-28T08:18:54.743Z,12.60
2019-02-28T08:19:58.773Z,12.35
2019-02-28T08:21:01.868Z,12.40
2019-02-28T08:22:04.706Z,11.97
2019-02-28T08:23:07.222Z,11.18
2019-02-28T08:24:09.854Z,13.32
2019-02-28T08:25:12.555Z,12.33
2019-02-28T08:26:18.816Z,12.05
2019-02-28T08:27:21.217Z,14.35
2019-02-28T08:28:26.088Z,13.65
2019-02-28T08:29:28.842Z,12.75
2019-02-28T08:30:31.752Z,13.58
2019-02-28T08:31:34.553Z,12.13
2019-02-28T08:32:42.736Z,12.55
2019-02-28T08:33:41.960Z,12.43
2019-02-28T08:34:46.747Z,11.43
2019-02-28T08:35:50.915Z,12.35
2019-02-28T08:36:53.862Z,14.63
2019-02-28T08:37:57.370Z,12.05
2019-02-28T08:39:00.503Z,12.60
2019-02-28T08:40:03.991Z,13.58
2019-02-28T08:41:06.748Z,14.25
2019-02-28T08:42:09.286Z,11.93
2019-02-28T08:43:13.465Z,12.75
2019-02-28T08:44:22.750Z,15.23
2019-02-28T08:45:20.941Z,13.15
2019-02-28T08:46:23.611Z,12.90
2019-02-28T08:47:26.191Z,13.20
2019-02-28T08:48:32.403Z,14.15
2019-02-28T08:49:33.386Z,13.40
2019-02-28T08:50:35.925Z,13.50
2019-02-28T08:51:38.552Z,13.65
2019-02-28T08:52:42.272Z,13.10
2019-02-28T08:53:50.818Z,15.60
2019-02-28T08:54:49.498Z,13.85
2019-02-28T08:55:52.071Z,14.65
2019-02-28T08:56:54.820Z,13.65
2019-02-28T08:58:04.775Z,13.38
2019-02-28T08:59:11.397Z,14.90
2019-02-28T09:00:09.959Z,14.75
2019-02-28T09:01:12.524Z,14.83
2019-02-28T09:02:18.271Z,13.85
2019-02-28T09:03:19.811Z,13.40
2019-02-28T09:04:23.596Z,13.72
2019-02-28T09:05:29.940Z,13.68
2019-02-28T09:06:30.628Z,13.80
2019-02-28T09:07:33.240Z,13.98
2019-02-28T09:08:36.025Z,15.00
2019-02-28T09:09:38.631Z,15.43
2019-02-28T09:10:43.623Z,14.85
2019-02-28T09:11:46.027Z,14.60
2019-02-28T09:12:48.909Z,13.62
2019-02-28T09:13:51.563Z,14.58
2019-02-28T09:14:56.280Z,14.65
2019-02-28T09:16:01.942Z,15.18
2019-02-28T09:17:03.882Z,15.00
2019-02-28T09:18:07.356Z,13.20
2019-02-28T09:19:10.106Z,14.68
2019-02-28T09:20:13.590Z,15.83
2019-02-28T09:21:18.402Z,15.48
2019-02-28T09:22:20.985Z,15.03
2019-02-28T09:23:23.721Z,15.68
2019-02-28T09:24:26.740Z,17.27
2019-02-28T09:25:29.404Z,14.75
2019-02-28T09:26:32.353Z,15.08
2019-02-28T09:27:35.392Z,16.52
2019-02-28T09:28:39.498Z,16.40
2019-02-28T09:29:42.021Z,17.80
2019-02-28T09:30:44.844Z,16.48
2019-02-28T09:31:47.478Z,15.78
2019-02-28T09:32:50.047Z,17.35
2019-02-28T09:33:55.429Z,15.35
2019-02-28T09:34:57.186Z,16.70
2019-02-28T09:36:00.181Z,15.75
2019-02-28T09:37:02.723Z,15.83
2019-02-28T09:38:07.634Z,15.28
2019-02-28T09:39:09.863Z,16.70
2019-02-28T09:40:12.959Z,15.70
2019-02-28T09:41:15.497Z,16.10
2019-02-28T09:42:18.176Z,16.73
2019-02-28T09:43:23.906Z,15.53
2019-02-28T09:44:25.190Z,16.57
2019-02-28T09:45:27.847Z,15.38
2019-02-28T09:46:30.398Z,15.43
2019-02-28T09:47:33.221Z,15.13
2019-02-28T09:48:37.234Z,15.05
2019-02-28T09:49:40.564Z,16.95
2019-02-28T09:50:43.568Z,16.35
2019-02-28T09:51:48.209Z,17.25
2019-02-28T09:52:50.981Z,14.80
2019-02-28T09:53:53.708Z,15.60
2019-02-28T09:54:59.208Z,14.93
2019-02-28T09:56:01.098Z,16.65
2019-02-28T09:57:03.813Z,16.95
2019-02-28T09:58:08.280Z,17.27
2019-02-28T09:59:10.845Z,17.85
2019-02-28T10:00:15.986Z,16.73
2019-02-28T10:01:21.300Z,17.35
2019-02-28T10:02:25.101Z,17.02
2019-02-28T10:03:27.863Z,15.20
2019-02-28T10:04:31.294Z,16.07
2019-02-28T10:05:34.126Z,17.77
2019-02-28T10:06:36.970Z,17.90
2019-02-28T10:07:39.514Z,16.62
2019-02-28T10:08:42.053Z,18.17
2019-02-28T10:09:46.837Z,17.82
2019-02-28T10:10:52.409Z,16.87
2019-02-28T10:11:54.098Z,16.45
2019-02-28T10:12:56.968Z,16.97
2019-02-28T10:13:59.777Z,18.67
2019-02-28T10:15:07.283Z,16.80
2019-02-28T10:16:06.918Z,16.30
2019-02-28T10:17:09.633Z,18.23
2019-02-28T10:18:12.324Z,19.07
2019-02-28T10:19:15.995Z,19.23
2019-02-28T10:20:26.338Z,16.60
2019-02-28T10:21:26.616Z,16.95
2019-02-28T10:22:29.152Z,16.30
2019-02-28T10:23:32.135Z,17.75
2019-02-28T10:24:34.660Z,18.45
2019-02-28T10:25:42.075Z,15.68
2019-02-28T10:26:41.899Z,16.60
2019-02-28T10:27:44.820Z,16.93
2019-02-28T10:28:47.345Z,19.55
2019-02-28T10:29:49.867Z,17.75
2019-02-28T10:30:52.528Z,17.25
2019-02-28T10:31:55.183Z,17.25
2019-02-28T10:32:57.985Z,16.62
2019-02-28T10:34:00.518Z,17.17
2019-02-28T10:35:04.430Z,18.82
2019-02-28T10:36:09.346Z,17.12
2019-02-28T10:37:11.438Z,17.80
2019-02-28T10:38:13.950Z,19.32
2019-02-28T10:39:18.280Z,16.97
2019-02-28T10:40:22.322Z,18.50
2019-02-28T10:41:27.998Z,15.85
2019-02-28T10:42:29.812Z,17.23
2019-02-28T10:43:33.659Z,17.67
2019-02-28T10:44:38.014Z,16.10
2019-02-28T10:45:41.989Z,16.75
2019-02-28T10:46:44.946Z,15.55
2019-02-28T10:47:47.727Z,17.73
2019-02-28T10:48:51.112Z,17.10
2019-02-28T10:49:55.429Z,16.77
2019-02-28T10:50:58.471Z,17.25
2019-02-28T10:52:01.473Z,17.52
2019-02-28T10:53:05.962Z,17.23
2019-02-28T10:54:11.253Z,18.10
2019-02-28T10:55:14.911Z,17.07
2019-02-28T10:56:17.682Z,16.97
2019-02-28T10:57:20.536Z,16.50
2019-02-28T10:58:23.201Z,16.80
2019-02-28T10:59:25.945Z,17.15
2019-02-28T11:00:32.907Z,18.15
2019-02-28T11:01:35.293Z,17.37
2019-02-28T11:02:38.143Z,19.12
2019-02-28T11:03:40.729Z,16.65
2019-02-28T11:04:44.024Z,18.40
2019-02-28T11:05:47.134Z,18.37
2019-02-28T11:06:51.943Z,18.37
2019-02-28T11:07:54.530Z,18.85
2019-02-28T11:08:57.285Z,19.35
2019-02-28T11:10:01.939Z,18.10
2019-02-28T11:11:07.309Z,17.85
2019-02-28T11:12:11.158Z,17.95
2019-02-28T11:13:15.886Z,17.95
2019-02-28T11:14:18.959Z,18.57
2019-02-28T11:15:23.918Z,18.48
2019-02-28T11:16:26.438Z,17.98
2019-02-28T11:17:30.426Z,18.85
2019-02-28T11:18:34.184Z,16.77
2019-02-28T11:19:38.493Z,20.32
2019-02-28T11:20:41.475Z,15.75
2019-02-28T11:21:44.127Z,17.73
2019-02-28T11:22:46.744Z,19.15
2019-02-28T11:23:50.212Z,19.52
2019-02-28T11:24:54.102Z,16.57
2019-02-28T11:25:56.956Z,18.52
2019-02-28T11:26:59.541Z,18.35
2019-02-28T11:28:02.320Z,17.25
2019-02-28T11:29:04.873Z,17.95
2019-02-28T11:30:10.123Z,18.37
2019-02-28T11:31:16.306Z,18.42
2019-02-28T11:32:19.147Z,18.55
2019-02-28T11:33:22.895Z,18.15
2019-02-28T11:34:25.654Z,18.75
2019-02-28T11:35:29.414Z,17.23
2019-02-28T11:36:34.127Z,18.45
2019-02-28T11:37:37.245Z,19.00
2019-02-28T11:38:39.953Z,18.15
2019-02-28T11:39:43.919Z,17.82
2019-02-28T11:40:46.972Z,18.25
2019-02-28T11:41:52.723Z,18.15
2019-02-28T11:42:54.148Z,18.92
2019-02-28T11:43:56.719Z,17.67
2019-02-28T11:44:59.530Z,19.23
2019-02-28T11:46:03.134Z,18.30
2019-02-28T11:47:08.355Z,18.17
2019-02-28T11:48:12.728Z,18.07
2019-02-28T11:49:15.089Z,15.40
2019-02-28T11:50:18.061Z,17.82
2019-02-28T11:51:20.608Z,19.95
2019-02-28T11:52:24.497Z,19.55
2019-02-28T11:53:27.959Z,17.00
2019-02-28T11:54:30.672Z,20.23
2019-02-28T11:55:33.283Z,17.82
2019-02-28T11:56:35.979Z,18.90
2019-02-28T11:57:41.250Z,17.45
2019-02-28T11:58:43.219Z,19.55
2019-02-28T11:59:45.820Z,18.65
2019-02-28T12:00:48.576Z,15.95
2019-02-28T12:01:51.258Z,17.67
2019-02-28T12:02:59.765Z,17.57
2019-02-28T12:03:58.337Z,18.20
2019-02-28T12:05:00.865Z,18.87
2019-02-28T12:06:03.521Z,19.85
2019-02-28T12:07:07.875Z,18.27
2019-02-28T12:08:12.345Z,17.30
2019-02-28T12:09:16.273Z,18.75
2019-02-28T12:10:19.991Z,18.12
2019-02-28T12:11:25.148Z,19.60
2019-02-28T12:12:28.889Z,17.90
2019-02-28T12:13:33.259Z,16.55
2019-02-28T12:14:35.952Z,18.45
2019-02-28T12:15:39.157Z,17.15
2019-02-28T12:16:42.183Z,20.20
2019-02-28T12:17:44.770Z,16.93
2019-02-28T12:18:47.429Z,19.17
2019-02-28T12:19:50.686Z,18.80
2019-02-28T12:20:54.214Z,17.05
2019-02-28T12:21:56.816Z,17.98
2019-02-28T12:22:59.347Z,17.32
2019-02-28T12:24:02.018Z,15.72
2019-02-28T12:25:07.638Z,17.15
2019-02-28T12:26:14.421Z,17.23
2019-02-28T12:27:16.645Z,17.48
2019-02-28T12:28:19.693Z,18.77
2019-02-28T12:29:22.329Z,15.20
2019-02-28T12:30:26.193Z,18.75
2019-02-28T12:31:32.136Z,17.12
2019-02-28T12:32:35.118Z,17.82
2019-02-28T12:33:39.703Z,17.10
2019-02-28T12:34:43.523Z,16.97
2019-02-28T12:35:46.402Z,15.95
2019-02-28T12:36:50.256Z,17.50
2019-02-28T12:37:53.970Z,15.75
2019-02-28T12:38:59.398Z,17.17
2019-02-28T12:40:01.935Z,19.00
2019-02-28T12:41:04.692Z,19.55
2019-02-28T12:42:07.294Z,19.17
2019-02-28T12:43:09.894Z,18.17
2019-02-28T12:44:15.412Z,18.57
2019-02-28T12:45:28.757Z,15.28
2019-02-28T12:46:32.778Z,17.42
2019-02-28T12:47:38.667Z,18.85
2019-02-28T12:48:41.991Z,18.10
2019-02-28T12:49:44.689Z,16.60
2019-02-28T12:50:47.346Z,14.90
2019-02-28T12:51:51.648Z,16.85
2019-02-28T12:52:54.178Z,17.00
2019-02-28T12:53:59.236Z,16.62
2019-02-28T12:55:03.981Z,15.95
2019-02-28T12:56:06.184Z,18.25
2019-02-28T12:57:08.785Z,18.87
2019-02-28T12:58:11.566Z,17.52
2019-02-28T12:59:14.240Z,18.87
2019-02-28T13:00:28.612Z,17.25
2019-02-28T13:01:33.180Z,17.98
2019-02-28T13:02:36.073Z,17.42
2019-02-28T13:03:38.898Z,18.35
2019-02-28T13:04:43.365Z,17.52
2019-02-28T13:05:48.015Z,16.82
2019-02-28T13:06:50.689Z,17.52
2019-02-28T13:07:53.237Z,16.80
2019-02-28T13:08:55.769Z,17.23
2019-02-28T13:10:00.336Z,19.17
2019-02-28T13:11:04.664Z,18.32
2019-02-28T13:12:08.643Z,16.93
2019-02-28T13:13:12.103Z,16.70
2019-02-28T13:14:14.793Z,17.37
2019-02-28T13:15:17.672Z,17.45
2019-02-28T13:16:21.396Z,18.80
2019-02-28T13:17:24.262Z,16.57
2019-02-28T13:18:28.570Z,16.67
2019-02-28T13:19:31.406Z,14.73
2019-02-28T13:20:36.262Z,16.48
2019-02-28T13:21:38.751Z,15.88
2019-02-28T13:22:41.662Z,15.23
2019-02-28T13:23:44.315Z,16.07
2019-02-28T13:24:47.628Z,16.07
2019-02-28T13:25:50.430Z,17.55
2019-02-28T13:26:53.233Z,15.85
2019-02-28T13:27:55.904Z,16.62
2019-02-28T13:28:58.452Z,18.70
2019-02-28T13:30:01.169Z,14.93
2019-02-28T13:31:04.463Z,16.65
2019-02-28T13:32:07.280Z,16.65
2019-02-28T13:33:10.922Z,15.55
2019-02-28T13:34:15.560Z,15.45
2019-02-28T13:35:20.613Z,14.47
2019-02-28T13:36:25.957Z,15.38
2019-02-28T13:37:28.472Z,14.23
2019-02-28T13:38:31.372Z,13.70
2019-02-28T13:39:33.990Z,14.35
2019-02-28T13:40:36.700Z,14.10
2019-02-28T13:41:39.489Z,15.08
2019-02-28T13:42:44.389Z,13.95
2019-02-28T13:43:47.090Z,14.55